createdAt,value
2016-10-08T00:00:03.874Z,18.08
2016-10-08T00:01:16.985Z,18.17
2016-10-08T00:02:30.614Z,18.12
2016-10-08T00:03:43.772Z,18.05
2016-10-08T00:05:59.590Z,18.03
2016-10-08T00:07:12.719Z,17.92
2016-10-08T00:08:26.364Z,17.93
2016-10-08T00:09:40.184Z,17.89
2016-10-08T00:10:53.871Z,17.93
2016-10-08T00:12:07.488Z,17.92
2016-10-08T00:13:21.367Z,17.79
2016-10-08T00:14:34.987Z,17.87
2016-10-08T00:15:48.562Z,17.81
2016-10-08T00:17:02.177Z,17.77
2016-10-08T00:18:14.753Z,17.74
2016-10-08T00:19:28.451Z,17.79
2016-10-08T00:20:42.331Z,17.7
2016-10-08T00:21:55.976Z,17.58
2016-10-08T00:23:09.692Z,17.59
2016-10-08T00:24:22.779Z,17.55
2016-10-08T00:25:36.422Z,17.55
2016-10-08T00:26:50.100Z,17.54
2016-10-08T00:28:17.668Z,17.48
2016-10-08T00:29:30.769Z,17.43
2016-10-08T00:30:44.376Z,17.4
2016-10-08T00:31:58.040Z,17.34
2016-10-08T00:33:12.035Z,17.37
2016-10-08T00:34:25.221Z,17.18
2016-10-08T00:35:38.989Z,17.26
2016-10-08T00:36:52.632Z,17.36
2016-10-08T00:38:06.230Z,17.38
2016-10-08T00:39:19.876Z,17.49
2016-10-08T00:40:33.495Z,17.43
2016-10-08T00:41:47.328Z,17.4
2016-10-08T00:43:00.970Z,17.44
2016-10-08T00:44:14.804Z,17.58
2016-10-08T00:45:28.428Z,17.56
2016-10-08T00:46:42.052Z,17.48
2016-10-08T00:47:55.651Z,17.58
2016-10-08T00:49:09.294Z,17.63
2016-10-08T00:50:22.884Z,17.63
2016-10-08T00:51:36.550Z,17.55
2016-10-08T00:52:50.196Z,17.46
2016-10-08T00:54:03.843Z,17.46
2016-10-08T00:55:17.522Z,17.51
2016-10-08T00:56:31.164Z,17.37
2016-10-08T00:57:44.797Z,17.44
2016-10-08T00:58:58.361Z,17.44
2016-10-08T01:00:12.284Z,17.33
2016-10-08T01:01:25.843Z,17.34
2016-10-08T01:02:39.307Z,17.26
2016-10-08T01:03:52.978Z,17.22
2016-10-08T01:05:06.536Z,17.26
2016-10-08T01:06:19.663Z,17.25
2016-10-08T01:07:33.360Z,17.26
2016-10-08T01:08:47.075Z,17.18
2016-10-08T01:10:00.677Z,17.19
2016-10-08T01:11:14.281Z,17.25
2016-10-08T01:12:27.967Z,17.25
2016-10-08T01:13:41.630Z,17.28
2016-10-08T01:14:55.413Z,17.19
2016-10-08T01:16:09.122Z,17.21
2016-10-08T01:17:22.331Z,17.25
2016-10-08T01:18:36.263Z,17.16
2016-10-08T01:19:49.409Z,17.28
2016-10-08T01:21:03.155Z,17.19
2016-10-08T01:22:16.909Z,17.19
2016-10-08T01:23:30.612Z,17.21
2016-10-08T01:24:44.289Z,17.19
2016-10-08T01:25:57.965Z,17.28
2016-10-08T01:27:11.631Z,17.25
2016-10-08T01:28:25.199Z,17.28
2016-10-08T01:29:39.185Z,17.19
2016-10-08T01:30:52.827Z,17.23
2016-10-08T01:32:06.451Z,17.21
2016-10-08T01:33:20.051Z,17.26
2016-10-08T01:34:33.682Z,17.33
2016-10-08T01:35:47.342Z,17.31
2016-10-08T01:37:01.020Z,17.25
2016-10-08T01:38:14.622Z,17.21
2016-10-08T01:39:28.246Z,17.25
2016-10-08T01:40:41.824Z,17.38
2016-10-08T01:41:55.488Z,17.38
2016-10-08T01:43:09.274Z,17.3
2016-10-08T01:44:22.858Z,17.21
2016-10-08T01:45:36.503Z,17.3
2016-10-08T01:46:50.209Z,17.19
2016-10-08T01:48:03.885Z,17.23
2016-10-08T01:49:16.434Z,17.19
2016-10-08T01:50:30.141Z,17.21
2016-10-08T01:51:43.862Z,17.28
2016-10-08T01:52:57.526Z,17.19
2016-10-08T01:54:11.163Z,17.11
2016-10-08T01:55:24.511Z,17.08
2016-10-08T01:56:38.195Z,17.11
2016-10-08T01:57:51.303Z,17.25
2016-10-08T01:59:05.002Z,17.21
2016-10-08T02:00:18.604Z,17.19
2016-10-08T02:01:32.242Z,17.15
2016-10-08T02:02:45.891Z,17.18
2016-10-08T02:03:59.712Z,17.19
2016-10-08T02:05:13.662Z,17.18
2016-10-08T02:06:27.524Z,17.15
2016-10-08T02:07:41.277Z,17.11
2016-10-08T02:08:54.973Z,17.14
2016-10-08T02:10:08.556Z,17.14
2016-10-08T02:11:22.183Z,17.14
2016-10-08T02:12:36.188Z,17.08
2016-10-08T02:13:49.265Z,17.08
2016-10-08T02:15:02.936Z,17
2016-10-08T02:16:16.869Z,17.03
2016-10-08T02:17:30.508Z,17.06
2016-10-08T02:18:44.147Z,17.01
2016-10-08T02:19:57.827Z,17.06
2016-10-08T02:21:10.960Z,17
2016-10-08T02:22:24.647Z,17.15
2016-10-08T02:23:38.295Z,17.07
2016-10-08T02:24:52.021Z,17.03
2016-10-08T02:26:05.100Z,17.08
2016-10-08T02:27:18.701Z,17.12
2016-10-08T02:30:17.082Z,17.12
2016-10-08T02:31:30.725Z,17.11
2016-10-08T02:32:44.320Z,16.98
2016-10-08T02:33:57.389Z,16.97
2016-10-08T02:35:11.086Z,17.06
2016-10-08T02:36:24.702Z,17
2016-10-08T02:37:38.367Z,17.04
2016-10-08T02:38:51.977Z,17.07
2016-10-08T02:40:05.635Z,17.14
2016-10-08T02:41:19.290Z,17.07
2016-10-08T02:42:32.461Z,17.08
2016-10-08T02:43:46.122Z,17.12
2016-10-08T02:44:59.482Z,17.11
2016-10-08T02:46:13.175Z,17.11
2016-10-08T02:47:26.862Z,17.15
2016-10-08T02:48:40.462Z,17.21
2016-10-08T02:49:54.121Z,17.19
2016-10-08T02:51:07.748Z,17.16
2016-10-08T02:52:21.335Z,17.11
2016-10-08T02:53:34.925Z,17.18
2016-10-08T02:54:48.527Z,17.14
2016-10-08T02:56:02.223Z,17.08
2016-10-08T02:57:15.803Z,17.08
2016-10-08T02:58:29.445Z,17.22
2016-10-08T02:59:43.112Z,17.18
2016-10-08T03:00:56.733Z,17.23
2016-10-08T03:02:09.789Z,17.21
2016-10-08T03:03:23.349Z,17.33
2016-10-08T03:04:36.913Z,17.41
2016-10-08T03:05:50.522Z,17.21
2016-10-08T03:07:03.863Z,17.36
2016-10-08T03:08:17.438Z,17.3
2016-10-08T03:09:31.082Z,17.23
2016-10-08T03:10:44.678Z,17.23
2016-10-08T03:11:58.362Z,17.15
2016-10-08T03:13:12.321Z,17.08
2016-10-08T03:14:25.915Z,16.97
2016-10-08T03:15:39.584Z,17.07
2016-10-08T03:16:53.201Z,17.06
2016-10-08T03:18:06.839Z,17.03
2016-10-08T03:19:20.404Z,17.14
2016-10-08T03:20:34.034Z,17.12
2016-10-08T03:21:47.722Z,17.19
2016-10-08T03:23:01.233Z,17.23
2016-10-08T03:24:14.881Z,17.25
2016-10-08T03:25:28.001Z,17.22
2016-10-08T03:26:41.617Z,17.23
2016-10-08T03:27:55.309Z,17.11
2016-10-08T03:29:09.313Z,17.11
2016-10-08T03:30:22.934Z,17.08
2016-10-08T03:31:36.570Z,17.11
2016-10-08T03:32:50.206Z,17.12
2016-10-08T03:34:03.823Z,17.07
2016-10-08T03:35:16.987Z,17.15
2016-10-08T03:36:30.550Z,17.18
2016-10-08T03:37:44.268Z,17.07
2016-10-08T03:38:57.913Z,16.94
2016-10-08T03:40:11.517Z,17.01
2016-10-08T03:41:25.115Z,16.91
2016-10-08T03:42:38.729Z,16.79
2016-10-08T03:43:52.449Z,16.94
2016-10-08T03:45:06.339Z,16.91
2016-10-08T03:46:19.961Z,16.94
2016-10-08T03:47:32.982Z,16.88
2016-10-08T03:48:45.841Z,16.85
2016-10-08T03:49:59.653Z,16.88
2016-10-08T03:51:13.303Z,16.96
2016-10-08T03:52:26.974Z,17
2016-10-08T03:53:40.615Z,16.98
2016-10-08T03:54:54.313Z,16.98
2016-10-08T03:56:07.920Z,16.97
2016-10-08T03:57:21.509Z,17.01
2016-10-08T03:58:35.178Z,17.01
2016-10-08T03:59:48.782Z,16.97
2016-10-08T04:01:02.412Z,16.97
2016-10-08T04:02:16.070Z,16.98
2016-10-08T04:03:29.708Z,16.97
2016-10-08T04:04:43.307Z,17.04
2016-10-08T04:05:56.916Z,17.03
2016-10-08T04:07:10.530Z,17.04
2016-10-08T04:08:38.127Z,17.11
2016-10-08T04:09:51.757Z,16.96
2016-10-08T04:11:05.445Z,17.06
2016-10-08T04:12:18.959Z,16.98
2016-10-08T04:13:32.597Z,16.91
2016-10-08T04:14:46.157Z,16.89
2016-10-08T04:15:59.763Z,16.79
2016-10-08T04:17:13.811Z,16.67
2016-10-08T04:18:26.872Z,16.71
2016-10-08T04:19:40.499Z,16.76
2016-10-08T04:20:54.148Z,16.79
2016-10-08T04:22:07.760Z,16.73
2016-10-08T04:23:21.350Z,16.53
2016-10-08T04:24:35.019Z,16.61
2016-10-08T04:25:48.876Z,16.7
2016-10-08T04:27:02.483Z,16.64
2016-10-08T04:28:16.077Z,16.7
2016-10-08T04:29:29.731Z,16.76
2016-10-08T04:30:43.321Z,16.73
2016-10-08T04:31:56.914Z,16.64
2016-10-08T04:33:10.645Z,16.64
2016-10-08T04:34:23.225Z,16.76
2016-10-08T04:35:36.850Z,16.76
2016-10-08T04:36:50.437Z,16.64
2016-10-08T04:38:04.100Z,16.68
2016-10-08T04:39:17.106Z,16.71
2016-10-08T04:40:30.703Z,16.66
2016-10-08T04:41:44.447Z,16.63
2016-10-08T04:42:58.103Z,16.68
2016-10-08T04:44:11.790Z,16.76
2016-10-08T04:45:25.398Z,16.73
2016-10-08T04:46:39.513Z,16.73
2016-10-08T04:47:53.124Z,16.64
2016-10-08T04:49:06.741Z,16.66
2016-10-08T04:50:20.322Z,16.68
2016-10-08T04:51:33.980Z,16.61
2016-10-08T04:52:47.652Z,16.66
2016-10-08T04:54:01.270Z,16.71
2016-10-08T04:55:14.659Z,16.71
2016-10-08T04:56:28.305Z,16.79
2016-10-08T04:57:41.947Z,16.68
2016-10-08T04:58:55.022Z,16.64
2016-10-08T05:00:08.644Z,16.67
2016-10-08T05:01:22.292Z,16.61
2016-10-08T05:02:35.928Z,16.82
2016-10-08T05:03:50.004Z,16.73
2016-10-08T05:05:03.592Z,16.64
2016-10-08T05:06:17.270Z,16.49
2016-10-08T05:07:30.852Z,16.57
2016-10-08T05:08:43.999Z,16.56
2016-10-08T05:09:57.639Z,16.5
2016-10-08T05:11:12.589Z,16.52
2016-10-08T05:12:27.005Z,16.64
2016-10-08T05:13:40.607Z,16.64
2016-10-08T05:14:54.265Z,16.52
2016-10-08T05:16:07.988Z,16.49
2016-10-08T05:17:21.670Z,16.58
2016-10-08T05:18:35.281Z,16.61
2016-10-08T05:19:48.923Z,16.71
2016-10-08T05:21:02.502Z,16.71
2016-10-08T05:22:16.087Z,16.78
2016-10-08T05:23:29.722Z,16.61
2016-10-08T05:24:42.838Z,16.49
2016-10-08T05:25:56.470Z,16.46
2016-10-08T05:27:10.090Z,16.48
2016-10-08T05:28:23.702Z,16.66
2016-10-08T05:29:37.390Z,16.63
2016-10-08T05:30:51.029Z,16.67
2016-10-08T05:32:04.625Z,16.63
2016-10-08T05:33:17.794Z,16.78
2016-10-08T05:34:31.375Z,16.91
2016-10-08T05:35:44.983Z,16.83
2016-10-08T05:36:58.663Z,16.78
2016-10-08T05:38:12.778Z,16.71
2016-10-08T05:39:26.368Z,16.64
2016-10-08T05:40:40.113Z,16.63
2016-10-08T05:41:53.686Z,16.63
2016-10-08T05:43:07.230Z,16.49
2016-10-08T05:44:20.885Z,16.39
2016-10-08T05:45:34.497Z,16.49
2016-10-08T05:46:48.983Z,16.5
2016-10-08T05:48:03.186Z,16.6
2016-10-08T05:49:17.091Z,16.67
2016-10-08T05:50:30.696Z,16.75
2016-10-08T05:51:44.341Z,16.7
2016-10-08T05:52:58.008Z,16.68
2016-10-08T05:54:11.636Z,16.66
2016-10-08T05:55:25.244Z,16.35
2016-10-08T05:56:39.543Z,16.35
2016-10-08T05:57:53.149Z,16.28
2016-10-08T05:59:06.450Z,16.28
2016-10-08T06:00:20.088Z,16.08
2016-10-08T06:01:33.743Z,16.14
2016-10-08T06:02:47.160Z,15.87
2016-10-08T06:04:00.823Z,15.96
2016-10-08T06:05:14.511Z,16
2016-10-08T06:06:28.091Z,16.08
2016-10-08T06:07:41.744Z,16.2
2016-10-08T06:08:55.343Z,16.24
2016-10-08T06:10:08.981Z,16.34
2016-10-08T06:11:22.619Z,16.15
2016-10-08T06:12:36.477Z,16.12
2016-10-08T06:13:50.059Z,16.15
2016-10-08T06:15:03.519Z,16.12
2016-10-08T06:16:17.059Z,16.02
2016-10-08T06:17:30.747Z,16.05
2016-10-08T06:18:44.443Z,16.09
2016-10-08T06:19:58.092Z,16.15
2016-10-08T06:21:11.709Z,16.11
2016-10-08T06:22:25.339Z,16.23
2016-10-08T06:23:39.580Z,16.25
2016-10-08T06:24:53.291Z,16.15
2016-10-08T06:26:06.951Z,16.11
2016-10-08T06:27:20.657Z,16.14
2016-10-08T06:28:34.268Z,16.14
2016-10-08T06:29:47.869Z,16.05
2016-10-08T06:31:00.993Z,15.96
2016-10-08T06:32:14.336Z,16.02
2016-10-08T06:33:28.013Z,15.84
2016-10-08T06:34:41.634Z,15.97
2016-10-08T06:35:55.283Z,16
2016-10-08T06:37:09.587Z,15.97
2016-10-08T06:38:23.314Z,16.09
2016-10-08T06:39:36.726Z,16.07
2016-10-08T06:40:50.359Z,16.04
2016-10-08T06:42:03.468Z,16.01
2016-10-08T06:43:17.252Z,16
2016-10-08T06:44:30.882Z,16.05
2016-10-08T06:45:44.482Z,16
2016-10-08T06:46:58.143Z,15.93
2016-10-08T06:48:11.314Z,16.02
2016-10-08T06:49:24.958Z,16.01
2016-10-08T06:50:38.308Z,16.04
2016-10-08T06:51:51.949Z,15.84
2016-10-08T06:53:05.592Z,15.87
2016-10-08T06:54:19.201Z,15.94
2016-10-08T06:55:32.818Z,15.89
2016-10-08T06:56:46.903Z,15.96
2016-10-08T06:58:00.550Z,15.84
2016-10-08T06:59:14.229Z,15.89
2016-10-08T07:00:27.907Z,16
2016-10-08T07:01:41.508Z,16.01
2016-10-08T07:02:55.160Z,16.01
2016-10-08T07:04:08.995Z,15.83
2016-10-08T07:05:22.607Z,15.78
2016-10-08T07:06:35.678Z,15.8
2016-10-08T07:07:49.251Z,15.9
2016-10-08T07:09:02.901Z,15.94
2016-10-08T07:10:17.001Z,15.96
2016-10-08T07:11:30.693Z,16
2016-10-08T07:12:44.336Z,16.07
2016-10-08T07:13:58.014Z,16.04
2016-10-08T07:15:11.140Z,16.04
2016-10-08T07:16:24.684Z,16.05
2016-10-08T07:17:38.359Z,16.02
2016-10-08T07:18:51.921Z,16.14
2016-10-08T07:20:05.804Z,16.11
2016-10-08T07:21:19.354Z,16.12
2016-10-08T07:22:32.984Z,15.96
2016-10-08T07:23:47.289Z,15.8
2016-10-08T07:25:00.929Z,15.8
2016-10-08T07:26:14.634Z,15.6
2016-10-08T07:27:28.207Z,15.76
2016-10-08T07:28:41.844Z,15.78
2016-10-08T07:29:55.518Z,15.86
2016-10-08T07:31:09.594Z,16.01
2016-10-08T07:32:23.258Z,16.05
2016-10-08T07:33:36.902Z,16.02
2016-10-08T07:34:50.587Z,15.93
2016-10-08T07:36:04.280Z,15.87
2016-10-08T07:37:17.407Z,15.93
2016-10-08T07:38:31.106Z,16.02
2016-10-08T07:39:44.732Z,16.11
2016-10-08T07:40:58.377Z,16.02
2016-10-08T07:42:11.980Z,16.02
2016-10-08T07:43:25.039Z,16.02
2016-10-08T07:44:38.677Z,16.04
2016-10-08T07:45:52.256Z,16.12
2016-10-08T07:47:05.895Z,16.04
2016-10-08T07:48:19.527Z,16
2016-10-08T07:49:32.613Z,16.09
2016-10-08T07:50:46.380Z,16.12
2016-10-08T07:51:59.922Z,16.17
2016-10-08T07:53:13.933Z,16.27
2016-10-08T07:54:27.594Z,16.24
2016-10-08T07:55:41.228Z,16.3
2016-10-08T07:56:54.919Z,16.25
2016-10-08T07:58:08.540Z,16.3
2016-10-08T07:59:22.233Z,16.3
2016-10-08T08:00:35.906Z,16.14
2016-10-08T08:01:49.587Z,16.11
2016-10-08T08:03:03.185Z,16.11
2016-10-08T08:04:17.071Z,16.27
2016-10-08T08:05:30.437Z,16.24
2016-10-08T08:06:44.094Z,16.2
2016-10-08T08:07:57.773Z,16.2
2016-10-08T08:09:11.362Z,16.31
2016-10-08T08:10:24.942Z,16.28
2016-10-08T08:11:38.622Z,16.28
2016-10-08T08:12:52.447Z,16.23
2016-10-08T08:14:06.020Z,16.2
2016-10-08T08:15:20.104Z,16.17
2016-10-08T08:16:33.724Z,16.08
2016-10-08T08:17:47.449Z,16.14
2016-10-08T08:19:01.056Z,16.08
2016-10-08T08:20:14.450Z,16.04
2016-10-08T08:21:28.146Z,16.09
2016-10-08T08:22:41.219Z,16.04
2016-10-08T08:23:54.819Z,16.02
2016-10-08T08:25:08.426Z,15.97
2016-10-08T08:26:22.008Z,15.96
2016-10-08T08:27:35.658Z,16.02
2016-10-08T08:28:49.325Z,16.01
2016-10-08T08:30:34.079Z,16.04
2016-10-08T08:31:47.756Z,16.02
2016-10-08T08:33:01.416Z,15.96
2016-10-08T08:34:14.955Z,15.96
2016-10-08T08:35:28.570Z,15.87
2016-10-08T08:36:42.745Z,15.8
2016-10-08T08:37:56.456Z,15.83
2016-10-08T08:39:10.097Z,15.8
2016-10-08T08:40:23.743Z,15.8
2016-10-08T08:41:36.877Z,15.82
2016-10-08T08:42:50.527Z,15.82
2016-10-08T08:44:04.148Z,15.68
2016-10-08T08:45:17.781Z,15.72
2016-10-08T08:46:31.454Z,15.84
2016-10-08T08:47:45.146Z,15.78
2016-10-08T08:48:58.388Z,15.83
2016-10-08T08:50:11.989Z,15.78
2016-10-08T08:51:25.798Z,15.84
2016-10-08T08:52:39.674Z,15.8
2016-10-08T08:53:53.333Z,15.74
2016-10-08T08:55:06.540Z,15.76
2016-10-08T08:56:20.127Z,15.78
2016-10-08T08:57:33.719Z,15.8
2016-10-08T08:58:47.358Z,15.84
2016-10-08T09:00:00.459Z,15.83
2016-10-08T09:01:14.212Z,15.82
2016-10-08T09:02:27.899Z,15.8
2016-10-08T09:03:41.544Z,15.82
2016-10-08T09:04:55.187Z,15.87
2016-10-08T09:06:08.809Z,15.92
2016-10-08T09:07:21.905Z,15.87
2016-10-08T09:08:35.566Z,15.93
2016-10-08T09:09:49.356Z,15.84
2016-10-08T09:11:02.390Z,15.96
2016-10-08T09:12:15.296Z,15.9
2016-10-08T09:13:28.961Z,15.87
2016-10-08T09:14:42.011Z,15.97
2016-10-08T09:15:55.657Z,15.89
2016-10-08T09:17:08.875Z,15.9
2016-10-08T09:18:22.494Z,16
2016-10-08T09:19:36.588Z,15.97
2016-10-08T09:20:50.262Z,16.02
2016-10-08T09:22:03.903Z,16.02
2016-10-08T09:23:17.005Z,16.04
2016-10-08T09:24:30.637Z,16.01
2016-10-08T09:25:43.220Z,16
2016-10-08T09:26:56.328Z,15.9
2016-10-08T09:28:09.770Z,15.87
2016-10-08T09:29:23.330Z,15.9
2016-10-08T09:30:36.940Z,15.96
2016-10-08T09:31:50.639Z,16.07
2016-10-08T09:33:03.129Z,16.11
2016-10-08T09:34:17.119Z,16.04
2016-10-08T09:35:30.784Z,15.97
2016-10-08T09:36:43.899Z,16.01
2016-10-08T09:37:57.606Z,16.05
2016-10-08T09:39:11.225Z,16.01
2016-10-08T09:40:24.837Z,16.09
2016-10-08T09:41:38.515Z,16.11
2016-10-08T09:42:52.157Z,16.12
2016-10-08T09:44:05.766Z,16.15
2016-10-08T09:45:18.836Z,16.12
2016-10-08T09:46:32.765Z,16.15
2016-10-08T09:47:46.383Z,16.23
2016-10-08T09:49:00.001Z,16.23
2016-10-08T09:50:13.178Z,16.2
2016-10-08T09:51:26.847Z,16.27
2016-10-08T09:52:39.935Z,16.14
2016-10-08T09:53:53.744Z,16.28
2016-10-08T09:55:07.361Z,16.14
2016-10-08T09:56:20.516Z,16.17
2016-10-08T09:57:34.218Z,16.28
2016-10-08T09:58:47.867Z,16.24
2016-10-08T10:00:01.454Z,16.27
2016-10-08T10:01:15.116Z,16.31
2016-10-08T10:02:28.264Z,16.28
2016-10-08T10:03:41.865Z,16.31
2016-10-08T10:04:54.931Z,16.24
2016-10-08T10:06:08.091Z,16.27
2016-10-08T10:07:21.789Z,16.33
2016-10-08T10:08:35.390Z,16.31
2016-10-08T10:09:48.971Z,16.33
2016-10-08T10:11:02.620Z,16.34
2016-10-08T10:12:15.739Z,16.25
2016-10-08T10:13:28.376Z,16.35
2016-10-08T10:14:42.021Z,16.31
2016-10-08T10:15:55.697Z,16.38
2016-10-08T10:17:09.794Z,16.42
2016-10-08T10:18:23.463Z,16.39
2016-10-08T10:19:36.582Z,16.41
2016-10-08T10:20:50.278Z,16.39
2016-10-08T10:22:03.873Z,16.43
2016-10-08T10:23:16.987Z,16.46
2016-10-08T10:24:30.684Z,16.5
2016-10-08T10:25:44.554Z,16.48
2016-10-08T10:26:57.662Z,16.53
2016-10-08T10:28:11.328Z,16.67
2016-10-08T10:29:24.447Z,16.68
2016-10-08T10:30:37.582Z,16.6
2016-10-08T10:31:51.030Z,16.6
2016-10-08T10:33:04.156Z,16.63
2016-10-08T10:34:17.795Z,16.58
2016-10-08T10:35:31.498Z,16.53
2016-10-08T10:36:45.163Z,16.66
2016-10-08T10:37:58.771Z,16.75
2016-10-08T10:39:12.680Z,16.76
2016-10-08T10:40:26.260Z,16.73
2016-10-08T10:41:39.950Z,16.67
2016-10-08T10:42:53.559Z,16.82
2016-10-08T10:44:07.179Z,16.82
2016-10-08T10:45:20.975Z,16.89
2016-10-08T10:46:34.015Z,16.88
2016-10-08T10:47:47.683Z,16.96
2016-10-08T10:49:01.321Z,16.97
2016-10-08T10:50:14.934Z,17.01
2016-10-08T10:51:28.569Z,16.98
2016-10-08T10:52:42.230Z,17.07
2016-10-08T10:53:55.871Z,16.97
2016-10-08T10:55:09.010Z,17.11
2016-10-08T10:56:22.667Z,17.15
2016-10-08T10:57:36.611Z,17.15
2016-10-08T10:58:50.207Z,17.21
2016-10-08T11:00:03.813Z,17.23
2016-10-08T11:01:17.450Z,17.4
2016-10-08T11:02:30.776Z,17.51
2016-10-08T11:03:44.449Z,17.58
2016-10-08T11:04:58.066Z,17.72
2016-10-08T11:06:11.793Z,17.84
2016-10-08T11:07:25.461Z,18.02
2016-10-08T11:08:39.091Z,18.08
2016-10-08T11:09:52.644Z,18.14
2016-10-08T11:11:05.214Z,18.18
2016-10-08T11:12:18.859Z,18.42
2016-10-08T11:13:31.939Z,18.57
2016-10-08T11:14:45.833Z,18.58
2016-10-08T11:15:58.893Z,18.67
2016-10-08T11:17:12.927Z,18.8
2016-10-08T11:18:26.514Z,18.82
2016-10-08T11:19:40.172Z,18.92
2016-10-08T11:20:53.059Z,19.08
2016-10-08T11:22:06.794Z,19.19
2016-10-08T11:23:20.451Z,19.16
2016-10-08T11:24:34.034Z,19.22
2016-10-08T11:25:47.675Z,19.41
2016-10-08T11:27:01.213Z,19.51
2016-10-08T11:28:14.828Z,19.65
2016-10-08T11:29:27.453Z,19.74
2016-10-08T11:30:40.552Z,19.91
2016-10-08T11:31:54.178Z,20.03
2016-10-08T11:33:07.834Z,20.14
2016-10-08T11:34:21.470Z,20.17
2016-10-08T11:35:34.803Z,20.31
2016-10-08T11:36:47.896Z,20.36
2016-10-08T11:38:01.599Z,20.36
2016-10-08T11:39:14.736Z,20.39
2016-10-08T11:40:27.865Z,20.43
2016-10-08T11:41:41.012Z,20.51
2016-10-08T11:42:54.678Z,20.64
2016-10-08T11:44:08.297Z,20.7
2016-10-08T11:45:21.454Z,20.91
2016-10-08T11:46:35.283Z,20.99
2016-10-08T11:47:48.841Z,20.99
2016-10-08T11:49:01.920Z,21.03
2016-10-08T11:50:13.988Z,21.1
2016-10-08T11:51:27.415Z,21.16
2016-10-08T11:52:41.064Z,21.38
2016-10-08T11:53:54.225Z,21.47
2016-10-08T11:55:07.872Z,21.43
2016-10-08T11:56:21.582Z,21.46
2016-10-08T11:57:35.204Z,21.49
2016-10-08T11:58:48.890Z,21.53
2016-10-08T12:00:02.528Z,21.58
2016-10-08T12:01:16.187Z,21.59
2016-10-08T12:02:29.582Z,21.77
2016-10-08T12:03:42.886Z,22
2016-10-08T12:04:56.493Z,21.8
2016-10-08T12:06:10.095Z,21.92
2016-10-08T12:07:23.723Z,21.88
2016-10-08T12:08:37.404Z,21.94
2016-10-08T12:09:50.489Z,22
2016-10-08T12:11:03.653Z,22.15
2016-10-08T12:12:16.747Z,22.12
2016-10-08T12:13:30.395Z,22.3
2016-10-08T12:14:43.626Z,22.33
2016-10-08T12:15:57.307Z,22.27
2016-10-08T12:17:10.971Z,22.31
2016-10-08T12:18:24.303Z,22.47
2016-10-08T12:19:38.010Z,22.75
2016-10-08T12:20:51.678Z,22.76
2016-10-08T12:22:05.003Z,22.98
2016-10-08T12:23:18.621Z,23.17
2016-10-08T12:24:31.961Z,23.2
2016-10-08T12:25:45.950Z,23.32
2016-10-08T12:26:59.079Z,23.43
2016-10-08T12:28:12.208Z,23.4
2016-10-08T12:29:25.777Z,23.54
2016-10-08T12:30:38.913Z,23.55
2016-10-08T12:31:52.595Z,23.79
2016-10-08T12:33:06.763Z,23.79
2016-10-08T12:34:19.842Z,23.78
2016-10-08T12:35:32.478Z,23.78
2016-10-08T12:36:46.122Z,23.95
2016-10-08T12:37:59.785Z,23.93
2016-10-08T12:39:13.384Z,23.97
2016-10-08T12:40:26.990Z,24
2016-10-08T12:41:40.684Z,24.08
2016-10-08T12:42:53.801Z,24.34
2016-10-08T12:44:06.910Z,24.22
2016-10-08T12:45:20.621Z,24.53
2016-10-08T12:46:34.327Z,24.64
2016-10-08T12:47:47.967Z,24.9
2016-10-08T12:49:01.014Z,25.02
2016-10-08T12:50:14.652Z,25.28
2016-10-08T12:51:28.845Z,25.23
2016-10-08T12:52:43.035Z,25.4
2016-10-08T12:53:56.676Z,25.4
2016-10-08T12:55:09.615Z,25.52
2016-10-08T12:56:23.295Z,25.67
2016-10-08T12:57:36.803Z,25.95
2016-10-08T12:58:50.482Z,26.06
2016-10-08T13:00:03.595Z,26.01
2016-10-08T13:01:17.340Z,25.91
2016-10-08T13:02:30.393Z,26.01
2016-10-08T13:03:43.731Z,26.15
2016-10-08T13:04:57.457Z,26.45
2016-10-08T13:06:10.809Z,26.5
2016-10-08T13:07:24.489Z,26.67
2016-10-08T13:08:38.130Z,26.67
2016-10-08T13:09:51.290Z,26.8
2016-10-08T13:11:04.868Z,26.85
2016-10-08T13:12:17.998Z,26.87
2016-10-08T13:13:30.806Z,26.99
2016-10-08T13:14:44.286Z,27.27
2016-10-08T13:15:58.006Z,27.49
2016-10-08T13:17:11.640Z,27.75
2016-10-08T13:18:25.522Z,27.82
2016-10-08T13:19:39.249Z,27.85
2016-10-08T13:20:52.874Z,27.99
2016-10-08T13:22:06.863Z,28.04
2016-10-08T13:23:20.462Z,28.18
2016-10-08T13:24:34.032Z,28.68
2016-10-08T13:25:47.711Z,28.54
2016-10-08T13:27:01.480Z,28.86
2016-10-08T13:28:15.220Z,29.05
2016-10-08T13:29:28.279Z,29.49
2016-10-08T13:30:41.911Z,30.13
2016-10-08T13:31:55.583Z,30.43
2016-10-08T13:33:08.203Z,30.86
2016-10-08T13:34:21.878Z,31.26
2016-10-08T13:35:35.488Z,31.47
2016-10-08T13:36:49.160Z,31.56
2016-10-08T13:38:02.366Z,31.91
2016-10-08T13:39:15.463Z,32.28
2016-10-08T13:40:29.072Z,32.5
2016-10-08T13:41:42.227Z,32.82
2016-10-08T13:42:55.384Z,33.07
2016-10-08T13:44:08.514Z,33.28
2016-10-08T13:45:21.658Z,32.82
2016-10-08T13:46:35.316Z,32.51
2016-10-08T13:47:48.967Z,32.66
2016-10-08T13:49:02.638Z,32.7
2016-10-08T13:50:16.300Z,32.78
2016-10-08T13:51:29.401Z,32.75
2016-10-08T13:53:13.053Z,32.85
2016-10-08T13:54:26.763Z,32.28
2016-10-08T13:55:40.385Z,32.19
2016-10-08T13:56:54.138Z,32.94
2016-10-08T13:58:07.245Z,33.53
2016-10-08T13:59:21.115Z,33.81
2016-10-08T14:00:34.785Z,33.82
2016-10-08T14:03:32.677Z,34.73
2016-10-08T14:04:46.340Z,35.09
2016-10-08T14:05:58.920Z,35.26
2016-10-08T14:07:12.985Z,35.62
2016-10-08T14:08:26.089Z,36.16
2016-10-08T14:09:39.185Z,36.15
2016-10-08T14:10:52.765Z,36.49
2016-10-08T14:12:06.899Z,36.69
2016-10-08T14:13:19.701Z,37.15
2016-10-08T14:14:32.797Z,36.88
2016-10-08T14:15:46.461Z,35.8
2016-10-08T14:17:00.076Z,35.31
2016-10-08T14:18:13.390Z,35.06
2016-10-08T14:19:27.097Z,34.54
2016-10-08T14:20:40.238Z,34.65
2016-10-08T14:21:53.898Z,34.78
2016-10-08T14:23:07.603Z,34.97
2016-10-08T14:24:20.731Z,34.8
2016-10-08T14:25:33.850Z,35.25
2016-10-08T14:26:47.007Z,35.52
2016-10-08T14:28:00.656Z,35.94
2016-10-08T14:29:13.736Z,36.5
2016-10-08T14:30:27.414Z,36.81
2016-10-08T14:31:41.138Z,36.22
2016-10-08T14:32:55.006Z,35.58
2016-10-08T14:34:08.664Z,35.31
2016-10-08T14:35:22.325Z,35.63
2016-10-08T14:36:34.872Z,36.34
2016-10-08T14:37:48.597Z,36.73
2016-10-08T14:39:02.204Z,36.81
2016-10-08T14:40:16.087Z,36.75
2016-10-08T14:41:29.747Z,36.88
2016-10-08T14:42:43.361Z,36.5
2016-10-08T14:43:57.082Z,36.29
2016-10-08T14:45:10.726Z,36.05
2016-10-08T14:46:23.521Z,35.9
2016-10-08T14:47:37.125Z,35.68
2016-10-08T14:48:50.766Z,35.85
2016-10-08T14:50:04.453Z,35.25
2016-10-08T14:51:18.114Z,34.75
2016-10-08T14:52:31.934Z,35.09
2016-10-08T14:53:45.574Z,34.78
2016-10-08T14:54:58.632Z,34.69
2016-10-08T14:56:11.751Z,34.28
2016-10-08T14:57:23.780Z,34.59
2016-10-08T14:58:36.902Z,34.78
2016-10-08T14:59:50.742Z,35.34
2016-10-08T15:01:03.310Z,35.71
2016-10-08T15:02:16.349Z,35.92
2016-10-08T15:03:30.025Z,35.96
2016-10-08T15:04:43.685Z,36.47
2016-10-08T15:05:57.351Z,36.46
2016-10-08T15:07:11.010Z,36.68
2016-10-08T15:08:24.103Z,37.09
2016-10-08T15:09:37.800Z,37.24
2016-10-08T15:10:51.439Z,36.32
2016-10-08T15:12:05.128Z,36.91
2016-10-08T15:13:18.724Z,37.28
2016-10-08T15:14:32.354Z,36.13
2016-10-08T15:15:46.134Z,36.34
2016-10-08T15:16:58.749Z,36.75
2016-10-08T15:18:11.904Z,36.39
2016-10-08T15:19:23.969Z,36.32
2016-10-08T15:20:37.606Z,36.38
2016-10-08T15:21:51.268Z,36.08
2016-10-08T15:23:04.918Z,35.9
2016-10-08T15:24:18.721Z,35.68
2016-10-08T15:25:32.344Z,35.85
2016-10-08T15:26:46.063Z,35.99
2016-10-08T15:27:59.719Z,36.03
2016-10-08T15:29:13.164Z,36.35
2016-10-08T15:30:26.558Z,35.97
2016-10-08T15:31:39.171Z,36.23
2016-10-08T15:32:52.842Z,36.76
2016-10-08T15:34:06.971Z,37.34
2016-10-08T15:35:20.304Z,37.85
2016-10-08T15:36:33.977Z,37.85
2016-10-08T15:37:47.626Z,37.93
2016-10-08T15:39:00.686Z,38.2
2016-10-08T15:40:14.393Z,37.93
2016-10-08T15:41:28.034Z,37.75
2016-10-08T15:42:41.713Z,37.56
2016-10-08T15:43:55.317Z,37.67
2016-10-08T15:45:08.918Z,37.81
2016-10-08T15:46:22.105Z,37.79
2016-10-08T15:47:35.202Z,37.32
2016-10-08T15:48:48.835Z,36.91
2016-10-08T15:50:02.510Z,36.62
2016-10-08T15:51:16.140Z,36.35
2016-10-08T15:52:29.243Z,36.15
2016-10-08T15:53:43.117Z,35.89
2016-10-08T15:54:56.813Z,35.58
2016-10-08T15:56:10.207Z,34.96
2016-10-08T15:57:24.001Z,34.31